createdAt,value
2018-08-09T00:00:47.293Z,80.80
2018-08-09T00:03:15.504Z,81.30
2018-08-09T00:05:43.750Z,80.80
2018-08-09T00:08:11.927Z,80.90
2018-08-09T00:10:40.137Z,80.80
2018-08-09T00:13:08.353Z,81.20
2018-08-09T00:15:36.560Z,81.10
2018-08-09T00:18:05.072Z,81.00
2018-08-09T00:20:33.299Z,81.00
2018-08-09T00:23:01.537Z,81.30
2018-08-09T00:25:29.837Z,81.30
2018-08-09T00:27:58.064Z,81.00
2018-08-09T00:30:26.216Z,81.20
2018-08-09T00:32:54.425Z,81.00
2018-08-09T00:35:22.621Z,81.10
2018-08-09T00:37:50.820Z,81.10
2018-08-09T00:40:19.048Z,81.50
2018-08-09T00:42:47.209Z,81.90
2018-08-09T00:45:15.441Z,82.10
2018-08-09T00:47:43.657Z,82.20
2018-08-09T00:50:11.816Z,82.70
2018-08-09T00:52:40.019Z,82.90
2018-08-09T00:55:08.161Z,83.20
2018-08-09T00:57:36.373Z,83.30
2018-08-09T01:00:05.568Z,83.70
2018-08-09T01:02:33.860Z,83.70
2018-08-09T01:05:02.081Z,83.80
2018-08-09T01:07:30.264Z,83.70
2018-08-09T01:09:58.480Z,83.60
2018-08-09T01:12:26.728Z,83.30
2018-08-09T01:14:54.937Z,83.30
2018-08-09T01:17:23.164Z,83.20
2018-08-09T01:19:51.536Z,83.60
2018-08-09T01:22:19.767Z,83.10
2018-08-09T01:24:47.963Z,83.00
2018-08-09T01:27:16.161Z,83.10
2018-08-09T01:29:44.316Z,83.60
2018-08-09T01:32:12.536Z,83.60
2018-08-09T01:34:40.687Z,83.30
2018-08-09T01:37:08.885Z,83.80
2018-08-09T01:39:37.053Z,84.10
2018-08-09T01:42:16.416Z,84.30
2018-08-09T01:44:44.581Z,84.40
2018-08-09T01:47:12.735Z,84.00
2018-08-09T01:49:40.927Z,84.20
2018-08-09T01:52:09.224Z,83.70
2018-08-09T01:54:37.478Z,83.60
2018-08-09T01:57:05.733Z,83.80
2018-08-09T01:59:33.920Z,84.50
2018-08-09T02:02:02.185Z,84.70
2018-08-09T02:04:30.392Z,84.50
2018-08-09T02:06:58.554Z,84.30
2018-08-09T02:09:33.607Z,84.80
2018-08-09T02:12:02.690Z,85.40
2018-08-09T02:14:30.932Z,85.70
2018-08-09T02:16:59.540Z,85.20
2018-08-09T02:19:27.688Z,85.70
2018-08-09T02:21:55.944Z,85.30
2018-08-09T02:24:24.144Z,85.30
2018-08-09T02:26:52.384Z,85.40
2018-08-09T02:29:20.574Z,85.40
2018-08-09T02:31:48.756Z,85.30
2018-08-09T02:34:16.960Z,85.10
2018-08-09T02:36:45.116Z,85.20
2018-08-09T02:39:13.316Z,85.20
2018-08-09T02:41:41.517Z,85.00
2018-08-09T02:44:09.672Z,84.90
2018-08-09T02:46:37.913Z,85.10
2018-08-09T02:49:06.052Z,85.00
2018-08-09T02:51:34.273Z,84.90
2018-08-09T02:54:02.487Z,84.90
2018-08-09T02:56:30.681Z,85.00
2018-08-09T02:58:58.900Z,85.30
2018-08-09T03:01:27.102Z,86.10
2018-08-09T03:03:55.291Z,85.90
2018-08-09T03:06:26.408Z,85.90
2018-08-09T03:08:54.633Z,85.60
2018-08-09T03:11:22.851Z,85.60
2018-08-09T03:13:51.007Z,85.20
2018-08-09T03:16:19.208Z,85.20
2018-08-09T03:18:47.368Z,85.40
2018-08-09T03:21:15.656Z,85.50
2018-08-09T03:23:43.908Z,85.50
2018-08-09T03:26:12.085Z,85.20
2018-08-09T03:28:40.275Z,85.00
2018-08-09T03:31:08.467Z,85.50
2018-08-09T03:33:36.648Z,86.00
2018-08-09T03:36:04.992Z,86.00
2018-08-09T03:38:33.163Z,85.90
2018-08-09T03:41:01.349Z,85.90
2018-08-09T03:43:29.513Z,85.90
2018-08-09T03:45:57.714Z,85.40
2018-08-09T03:48:25.991Z,85.50
2018-08-09T03:50:54.164Z,85.40
2018-08-09T03:53:22.388Z,85.80
2018-08-09T03:55:50.552Z,85.80
2018-08-09T03:58:18.768Z,85.60
2018-08-09T04:00:47.013Z,85.60
2018-08-09T04:03:15.189Z,85.70
2018-08-09T04:05:43.384Z,86.00
2018-08-09T04:08:11.549Z,86.80
2018-08-09T04:10:39.756Z,87.10
2018-08-09T04:13:07.949Z,87.70
2018-08-09T04:15:36.144Z,87.40
2018-08-09T04:18:04.503Z,88.00
2018-08-09T04:20:32.685Z,88.00
2018-08-09T04:23:00.890Z,88.20
2018-08-09T04:25:29.107Z,88.70
2018-08-09T04:27:57.355Z,88.40
2018-08-09T04:30:26.438Z,88.00
2018-08-09T04:32:54.645Z,87.90
2018-08-09T04:35:22.852Z,87.80
2018-08-09T04:37:51.044Z,88.60
2018-08-09T04:40:19.281Z,88.70
2018-08-09T04:42:47.474Z,88.60
2018-08-09T04:45:15.666Z,88.30
2018-08-09T04:47:43.865Z,88.50
2018-08-09T04:50:12.164Z,88.70
2018-08-09T04:52:40.401Z,88.50
2018-08-09T04:55:08.629Z,88.20
2018-08-09T04:57:36.825Z,89.00
2018-08-09T05:00:05.785Z,89.10
2018-08-09T05:02:34.040Z,89.00
2018-08-09T05:05:02.221Z,89.30
2018-08-09T05:07:30.444Z,88.90
2018-08-09T05:10:03.875Z,88.40
2018-08-09T05:12:32.119Z,87.40
2018-08-09T05:15:00.304Z,86.30
2018-08-09T05:17:28.540Z,85.70
2018-08-09T05:19:56.753Z,85.30
2018-08-09T05:22:25.430Z,84.80
2018-08-09T05:24:53.631Z,83.90
2018-08-09T05:27:21.841Z,83.80
2018-08-09T05:29:50.036Z,83.60
2018-08-09T05:32:18.219Z,82.10
2018-08-09T05:34:46.977Z,81.80
2018-08-09T05:37:15.225Z,81.30
2018-08-09T05:39:43.438Z,81.50
2018-08-09T05:42:11.757Z,80.40
2018-08-09T05:44:39.988Z,80.50
2018-08-09T05:47:08.252Z,80.40
2018-08-09T05:49:36.455Z,80.60
2018-08-09T05:52:04.727Z,79.60
2018-08-09T05:54:32.931Z,79.60
2018-08-09T05:57:01.237Z,79.80
2018-08-09T05:59:29.953Z,79.40
2018-08-09T06:01:58.228Z,79.80
2018-08-09T06:04:26.433Z,79.00
2018-08-09T06:06:54.650Z,78.70
2018-08-09T06:09:22.814Z,78.20
2018-08-09T06:11:51.060Z,78.20
2018-08-09T06:14:19.247Z,77.40
2018-08-09T06:16:47.465Z,77.60
2018-08-09T06:19:16.192Z,77.40
2018-08-09T06:21:44.491Z,76.50
2018-08-09T06:24:12.681Z,75.80
2018-08-09T06:26:40.861Z,75.30
2018-08-09T06:29:09.124Z,75.60
2018-08-09T06:31:37.406Z,75.40
2018-08-09T06:34:05.671Z,75.40
2018-08-09T06:36:34.295Z,75.50
2018-08-09T06:39:02.523Z,75.10
2018-08-09T06:41:30.745Z,74.70
2018-08-09T06:43:58.929Z,74.50
2018-08-09T06:46:27.160Z,74.90
2018-08-09T06:48:55.338Z,73.20
2018-08-09T06:51:23.545Z,73.60
2018-08-09T06:53:51.744Z,74.10
2018-08-09T06:56:19.975Z,74.50
2018-08-09T06:58:48.168Z,72.80
2018-08-09T07:01:16.332Z,72.00
2018-08-09T07:03:44.586Z,72.30
2018-08-09T07:06:12.765Z,71.20
2018-08-09T07:08:40.984Z,71.50
2018-08-09T07:11:09.181Z,70.20
2018-08-09T07:13:37.380Z,70.90
2018-08-09T07:16:05.605Z,70.30
2018-08-09T07:18:34.039Z,70.70
2018-08-09T07:21:02.304Z,69.50
2018-08-09T07:23:30.462Z,68.90
2018-08-09T07:25:58.704Z,68.80
2018-08-09T07:28:26.868Z,67.30
2018-08-09T07:30:55.156Z,67.50
2018-08-09T07:33:23.324Z,66.90
2018-08-09T07:35:51.561Z,67.40
2018-08-09T07:38:19.713Z,66.90
2018-08-09T07:40:47.905Z,65.80
2018-08-09T07:43:16.110Z,67.00
2018-08-09T07:45:44.333Z,65.70
2018-08-09T07:48:12.571Z,65.60
2018-08-09T07:50:40.794Z,66.00
2018-08-09T07:53:09.035Z,65.20
2018-08-09T07:55:37.310Z,64.20
2018-08-09T07:58:05.537Z,63.50
2018-08-09T08:00:33.828Z,64.10
2018-08-09T08:03:02.008Z,63.00
2018-08-09T08:05:30.228Z,63.50
2018-08-09T08:07:58.418Z,64.10
2018-08-09T08:10:26.661Z,64.30
2018-08-09T08:12:54.808Z,62.80
2018-08-09T08:15:23.007Z,62.50
2018-08-09T08:17:51.289Z,63.00
2018-08-09T08:20:19.456Z,62.70
2018-08-09T08:22:47.731Z,62.60
2018-08-09T08:25:16.008Z,62.60
2018-08-09T08:27:44.224Z,61.40
2018-08-09T08:30:13.568Z,61.90
2018-08-09T08:32:42.338Z,61.60
2018-08-09T08:35:11.080Z,61.50
2018-08-09T08:37:39.842Z,61.90
2018-08-09T08:40:08.771Z,60.80
2018-08-09T08:42:37.470Z,61.70
2018-08-09T08:45:08.593Z,61.40
2018-08-09T08:47:36.855Z,61.30
2018-08-09T08:50:05.109Z,61.00
2018-08-09T08:52:33.374Z,59.60
2018-08-09T08:55:01.564Z,59.80
2018-08-09T08:57:30.084Z,60.10
2018-08-09T08:59:58.313Z,60.60
2018-08-09T09:02:26.493Z,60.70
2018-08-09T09:04:54.736Z,59.70
2018-08-09T09:07:22.905Z,60.30
2018-08-09T09:09:51.146Z,59.70
2018-08-09T09:12:19.348Z,59.70
2018-08-09T09:14:47.576Z,59.20
2018-08-09T09:17:15.812Z,57.90
2018-08-09T09:19:44.002Z,57.70
2018-08-09T09:22:12.249Z,57.70
2018-08-09T09:24:40.496Z,56.40
2018-08-09T09:27:08.791Z,56.60
2018-08-09T09:29:37.027Z,57.10
2018-08-09T09:32:05.238Z,57.00
2018-08-09T09:34:33.456Z,56.80
2018-08-09T09:37:01.620Z,56.60
2018-08-09T09:39:29.850Z,57.10
2018-08-09T09:41:58.058Z,57.70
2018-08-09T09:44:26.251Z,56.40
2018-08-09T09:46:54.463Z,55.60
2018-08-09T09:49:22.655Z,55.90
2018-08-09T09:51:50.879Z,55.50
2018-08-09T09:54:19.084Z,56.10
2018-08-09T09:56:47.245Z,54.60
2018-08-09T09:59:15.779Z,54.50
2018-08-09T10:01:44.028Z,55.30
2018-08-09T10:04:12.244Z,54.60
2018-08-09T10:06:40.396Z,54.30
2018-08-09T10:09:10.624Z,54.20
2018-08-09T10:11:39.017Z,53.90
2018-08-09T10:14:07.341Z,55.70
2018-08-09T10:16:35.551Z,54.80
2018-08-09T10:19:03.821Z,54.50
2018-08-09T10:21:32.152Z,54.20
2018-08-09T10:24:00.321Z,53.50
2018-08-09T10:26:28.763Z,54.10
2018-08-09T10:28:56.940Z,54.30
2018-08-09T10:31:25.552Z,53.90
2018-08-09T10:33:55.156Z,53.20
2018-08-09T10:36:23.377Z,53.30
2018-08-09T10:38:51.799Z,54.90
2018-08-09T10:41:19.998Z,53.90
2018-08-09T10:43:48.583Z,53.70
2018-08-09T10:46:17.021Z,54.00
2018-08-09T10:48:45.301Z,54.40
2018-08-09T10:51:13.905Z,54.00
2018-08-09T10:53:42.119Z,53.00
2018-08-09T10:56:10.352Z,53.10
2018-08-09T10:58:38.668Z,51.90
2018-08-09T11:01:07.136Z,51.80
2018-08-09T11:03:35.766Z,52.50
2018-08-09T11:06:04.095Z,51.00
2018-08-09T11:08:32.459Z,51.90
2018-08-09T11:11:05.101Z,51.80
2018-08-09T11:13:33.338Z,52.10
2018-08-09T11:16:01.548Z,52.30
2018-08-09T11:18:29.764Z,52.40
2018-08-09T11:20:57.916Z,51.50
2018-08-09T11:23:26.096Z,50.20
2018-08-09T11:25:55.876Z,49.50
2018-08-09T11:28:24.176Z,50.30
2018-08-09T11:30:52.377Z,51.10
2018-08-09T11:33:20.553Z,50.10
2018-08-09T11:35:48.736Z,50.00
2018-08-09T11:38:16.879Z,49.40
2018-08-09T11:40:45.080Z,49.90
2018-08-09T11:43:13.280Z,49.60
2018-08-09T11:45:41.497Z,49.50
2018-08-09T11:48:09.689Z,49.10
2018-08-09T11:50:37.853Z,49.30
2018-08-09T11:53:06.149Z,49.10
2018-08-09T11:55:34.333Z,48.50
2018-08-09T11:58:02.938Z,48.00
2018-08-09T12:00:31.182Z,48.80
2018-08-09T12:02:59.332Z,48.90
2018-08-09T12:05:27.606Z,48.60
2018-08-09T12:07:55.812Z,49.30
2018-08-09T12:10:23.959Z,49.30
2018-08-09T12:12:52.177Z,48.30
2018-08-09T12:15:20.401Z,48.80
2018-08-09T12:17:48.648Z,48.20
2018-08-09T12:20:16.928Z,49.20
2018-08-09T12:22:45.089Z,47.60
2018-08-09T12:25:13.400Z,48.60
2018-08-09T12:27:41.595Z,49.30
2018-08-09T12:30:12.472Z,49.10
2018-08-09T12:32:40.769Z,48.50
2018-08-09T12:35:10.424Z,49.50
2018-08-09T12:37:39.052Z,49.80
2018-08-09T12:40:08.344Z,50.20
2018-08-09T12:42:36.968Z,50.00
2018-08-09T12:45:06.649Z,49.20
2018-08-09T12:47:35.319Z,51.00
2018-08-09T12:50:04.325Z,50.40
2018-08-09T12:52:32.513Z,51.00
2018-08-09T12:55:00.760Z,51.40
2018-08-09T12:57:29.045Z,51.80
2018-08-09T12:59:57.320Z,50.10
2018-08-09T13:02:25.528Z,50.40
2018-08-09T13:04:53.685Z,49.80
2018-08-09T13:07:21.872Z,48.10
2018-08-09T13:09:50.088Z,50.20
2018-08-09T13:12:18.327Z,48.20
2018-08-09T13:14:46.517Z,49.10
2018-08-09T13:17:14.792Z,49.40
2018-08-09T13:19:43.176Z,50.10
2018-08-09T13:22:11.365Z,49.70
2018-08-09T13:24:39.612Z,49.70
2018-08-09T13:27:07.844Z,49.20
2018-08-09T13:29:36.049Z,50.10
2018-08-09T13:32:04.330Z,49.80
2018-08-09T13:34:32.533Z,50.00
2018-08-09T13:37:00.865Z,50.30
2018-08-09T13:39:29.107Z,50.40
2018-08-09T13:41:57.372Z,50.20
2018-08-09T13:44:25.582Z,51.00
2018-08-09T13:46:53.837Z,50.30
2018-08-09T13:49:22.007Z,50.40
2018-08-09T13:51:50.258Z,49.30
2018-08-09T13:54:18.444Z,48.90
2018-08-09T13:56:46.681Z,49.70
2018-08-09T13:59:14.863Z,47.90
2018-08-09T14:01:43.120Z,48.00
2018-08-09T14:04:11.546Z,47.40
2018-08-09T14:06:39.780Z,46.90
2018-08-09T14:09:10.700Z,45.60
2018-08-09T14:11:39.236Z,46.60
2018-08-09T14:14:07.529Z,44.60
2018-08-09T14:16:35.720Z,45.70
2018-08-09T14:19:03.981Z,46.40
2018-08-09T14:21:32.538Z,46.20
2018-08-09T14:24:00.804Z,46.30
2018-08-09T14:26:29.028Z,47.00
2018-08-09T14:28:57.393Z,48.40
2018-08-09T14:31:25.704Z,48.50
2018-08-09T14:33:53.864Z,47.80
2018-08-09T14:36:22.087Z,47.60
2018-08-09T14:38:50.265Z,47.90
2018-08-09T14:41:18.545Z,47.40
2018-08-09T14:43:46.877Z,49.30
2018-08-09T14:46:15.061Z,49.30
2018-08-09T14:48:43.294Z,49.10
2018-08-09T14:51:11.533Z,50.10
2018-08-09T14:53:39.751Z,49.40
2018-08-09T14:56:08.057Z,49.30
2018-08-09T14:58:36.369Z,49.70
2018-08-09T15:01:04.660Z,50.00
2018-08-09T15:03:33.001Z,51.00
2018-08-09T15:06:01.214Z,50.20
2018-08-09T15:08:29.485Z,50.60
2018-08-09T15:10:57.725Z,51.20
2018-08-09T15:13:25.959Z,51.50
2018-08-09T15:15:54.197Z,52.00
2018-08-09T15:18:22.356Z,53.30
2018-08-09T15:20:50.545Z,53.40
2018-08-09T15:23:18.730Z,50.80
2018-08-09T15:25:46.916Z,51.90
2018-08-09T15:28:15.230Z,50.00
2018-08-09T15:30:43.449Z,50.40
2018-08-09T15:33:11.682Z,49.70
2018-08-09T15:35:39.968Z,50.20
2018-08-09T15:38:08.304Z,49.30
2018-08-09T15:40:36.517Z,50.40
2018-08-09T15:43:04.825Z,51.20
2018-08-09T15:45:32.988Z,51.40
2018-08-09T15:48:01.321Z,52.30
2018-08-09T15:50:29.568Z,53.00
2018-08-09T15:52:57.893Z,53.70
2018-08-09T15:55:26.151Z,54.60
2018-08-09T15:57:54.428Z,54.30
2018-08-09T16:00:23.692Z,52.60
2018-08-09T16:02:52.077Z,52.00
2018-08-09T16:05:20.510Z,52.40
2018-08-09T16:07:48.936Z,52.50
2018-08-09T16:10:17.884Z,52.20
2018-08-09T16:12:46.645Z,52.50
2018-08-09T16:15:16.491Z,52.20
2018-08-09T16:17:45.864Z,52.00
2018-08-09T16:20:14.240Z,51.50
2018-08-09T16:22:43.329Z,51.90
2018-08-09T16:25:13.441Z,53.20
2018-08-09T16:27:41.825Z,53.30
2018-08-09T16:30:13.692Z,53.60
2018-08-09T16:32:42.416Z,54.00
2018-08-09T16:35:11.368Z,55.00
2018-08-09T16:37:40.384Z,54.80
2018-08-09T16:40:10.216Z,55.30
2018-08-09T16:42:38.720Z,55.10
2018-08-09T16:45:07.976Z,55.60
2018-08-09T16:47:36.284Z,54.90
2018-08-09T16:50:05.699Z,56.10
2018-08-09T16:52:34.016Z,56.00
2018-08-09T16:55:02.402Z,56.30
2018-08-09T16:57:30.617Z,56.20
2018-08-09T16:59:58.837Z,56.10
2018-08-09T17:02:27.108Z,55.70
2018-08-09T17:04:55.352Z,55.90
2018-08-09T17:07:23.596Z,55.50
2018-08-09T17:09:51.847Z,54.80
2018-08-09T17:12:20.140Z,53.50
2018-08-09T17:14:48.392Z,52.20
2018-08-09T17:17:16.582Z,53.00
2018-08-09T17:19:44.807Z,52.60
2018-08-09T17:22:13.041Z,52.30
2018-08-09T17:24:42.181Z,51.80
2018-08-09T17:27:10.505Z,51.50
2018-08-09T17:29:38.811Z,49.60
2018-08-09T17:32:07.381Z,50.10
2018-08-09T17:34:35.676Z,51.80
2018-08-09T17:37:04.333Z,54.50
2018-08-09T17:39:32.649Z,55.70
2018-08-09T17:42:00.872Z,56.50
2018-08-09T17:44:29.216Z,58.60
2018-08-09T17:46:57.446Z,59.20
2018-08-09T17:49:25.641Z,59.80
2018-08-09T17:51:53.868Z,63.50
2018-08-09T17:54:22.093Z,64.30
2018-08-09T17:56:50.441Z,63.20
2018-08-09T17:59:18.705Z,64.00
2018-08-09T18:01:46.917Z,61.70
2018-08-09T18:04:15.140Z,62.40
2018-08-09T18:06:43.337Z,63.60
2018-08-09T18:09:11.773Z,63.40
2018-08-09T18:11:40.268Z,63.80
2018-08-09T18:14:08.516Z,64.10
2018-08-09T18:16:37.456Z,65.00
2018-08-09T18:19:06.022Z,65.10
2018-08-09T18:21:34.252Z,65.80
2018-08-09T18:24:02.525Z,66.60
2018-08-09T18:26:30.700Z,66.80
2018-08-09T18:28:58.924Z,67.20
2018-08-09T18:31:27.185Z,68.20
2018-08-09T18:33:55.384Z,68.70
2018-08-09T18:36:23.723Z,69.10
2018-08-09T18:38:52.100Z,69.00
2018-08-09T18:41:20.340Z,67.40
2018-08-09T18:43:48.585Z,67.70
2018-08-09T18:46:16.961Z,69.30
2018-08-09T18:48:45.225Z,72.00
2018-08-09T18:51:13.464Z,74.00
2018-08-09T18:53:41.621Z,74.40
2018-08-09T18:56:09.917Z,77.00
2018-08-09T18:58:38.133Z,79.10
2018-08-09T19:01:06.384Z,80.70
2018-08-09T19:03:34.621Z,79.60
2018-08-09T19:06:02.935Z,82.80
2018-08-09T19:08:31.236Z,80.70
2018-08-09T19:10:59.558Z,80.50
2018-08-09T19:13:27.804Z,81.70
2018-08-09T19:15:55.984Z,81.90
2018-08-09T19:18:24.185Z,81.20
2018-08-09T19:20:52.452Z,81.40
2018-08-09T19:23:20.763Z,83.00
2018-08-09T19:25:49.000Z,83.80
2018-08-09T19:28:17.320Z,85.70
2018-08-09T19:30:45.713Z,86.40
2018-08-09T19:33:14.012Z,87.10
2018-08-09T19:35:42.208Z,87.00
2018-08-09T19:38:10.421Z,87.40
2018-08-09T19:40:38.617Z,87.10
2018-08-09T19:43:06.793Z,86.60
2018-08-09T19:45:35.045Z,88.40
2018-08-09T19:48:36.336Z,88.10
2018-08-09T19:51:04.620Z,86.30
2018-08-09T19:53:32.909Z,85.40
2018-08-09T19:56:01.092Z,85.50
2018-08-09T19:58:29.311Z,86.20
2018-08-09T20:00:57.528Z,86.20
2018-08-09T20:03:25.785Z,86.50
2018-08-09T20:05:54.048Z,85.60
2018-08-09T20:08:22.269Z,85.70
2018-08-09T20:10:50.574Z,86.40
2018-08-09T20:13:18.871Z,86.90
2018-08-09T20:15:47.121Z,87.90
2018-08-09T20:18:15.364Z,87.40
2018-08-09T20:20:43.623Z,89.80
2018-08-09T20:23:11.913Z,89.00
2018-08-09T20:25:40.136Z,90.90
2018-08-09T20:28:08.456Z,90.70
2018-08-09T20:30:36.700Z,90.10
2018-08-09T20:33:05.061Z,91.20
2018-08-09T20:35:33.261Z,90.80
2018-08-09T20:38:01.553Z,91.70
2018-08-09T20:40:29.740Z,90.00
2018-08-09T20:42:57.928Z,90.50
2018-08-09T20:45:26.141Z,91.00
2018-08-09T20:47:54.338Z,90.80
2018-08-09T20:50:26.850Z,91.00
2018-08-09T20:52:55.141Z,91.70
2018-08-09T20:55:23.481Z,92.30
2018-08-09T20:57:52.534Z,91.40
2018-08-09T21:00:26.632Z,91.50
2018-08-09T21:02:56.377Z,89.50
2018-08-09T21:05:28.998Z,90.10
2018-08-09T21:07:57.814Z,87.80
2018-08-09T21:10:26.560Z,88.20
2018-08-09T21:12:54.838Z,87.70
2018-08-09T21:15:23.269Z,87.70
2018-08-09T21:17:51.596Z,85.90
2018-08-09T21:20:19.936Z,85.50
2018-08-09T21:22:49.029Z,85.00
2018-08-09T21:25:17.463Z,85.30
2018-08-09T21:27:46.325Z,84.80
2018-08-09T21:30:16.824Z,86.00
2018-08-09T21:32:45.660Z,86.50
2018-08-09T21:35:13.933Z,85.20
2018-08-09T21:37:42.722Z,85.60
2018-08-09T21:40:11.774Z,86.30
2018-08-09T21:42:40.036Z,86.20
2018-08-09T21:45:11.637Z,85.50
2018-08-09T21:47:39.939Z,85.90
2018-08-09T21:50:13.413Z,84.40
2018-08-09T21:52:41.756Z,84.10
2018-08-09T21:55:10.772Z,84.00
2018-08-09T21:57:39.001Z,84.00
2018-08-09T22:00:14.145Z,84.80
2018-08-09T22:02:42.405Z,85.40
2018-08-09T22:05:16.216Z,85.50
2018-08-09T22:07:50.037Z,86.10
2018-08-09T22:10:23.841Z,85.50
2018-08-09T22:12:57.645Z,86.10
2018-08-09T22:15:31.340Z,85.40
2018-08-09T22:18:05.260Z,85.40
2018-08-09T22:20:38.869Z,85.60
2018-08-09T22:23:07.116Z,86.50
2018-08-09T22:25:35.326Z,87.20
2018-08-09T22:28:03.701Z,87.60
2018-08-09T22:30:31.999Z,87.80
2018-08-09T22:33:00.242Z,88.10
2018-08-09T22:35:28.449Z,89.10
2018-08-09T22:37:56.693Z,87.90
2018-08-09T22:40:24.907Z,87.50
2018-08-09T22:42:53.126Z,87.80
2018-08-09T22:45:21.366Z,87.50
2018-08-09T22:47:49.581Z,88.10
2018-08-09T22:50:17.740Z,87.30
2018-08-09T22:52:45.977Z,88.20
2018-08-09T22:55:14.169Z,88.70
2018-08-09T22:57:42.344Z,88.10
2018-08-09T23:00:18.996Z,88.00
2018-08-09T23:02:47.170Z,88.60
2018-08-09T23:05:15.844Z,88.20
2018-08-09T23:07:44.166Z,88.00
2018-08-09T23:10:12.448Z,88.00
2018-08-09T23:12:40.732Z,87.80
2018-08-09T23:15:09.447Z,87.50
2018-08-09T23:17:37.652Z,87.70
2018-08-09T23:20:07.158Z,88.00
2018-08-09T23:22:35.344Z,87.70
2018-08-09T23:25:05.169Z,87.50
2018-08-09T23:27:33.400Z,87.30
2018-08-09T23:30:01.629Z,86.90
2018-08-09T23:32:29.836Z,87.60
2018-08-09T23:34:58.075Z,87.60
2018-08-09T23:37:26.300Z,87.60
2018-08-09T23:39:54.507Z,87.90
2018-08-09T23:42:22.740Z,87.70
2018-08-09T23:44:50.913Z,89.50
2018-08-09T23:47:19.125Z,90.10
2018-08-09T23:49:47.305Z,91.70
2018-08-09T23:52:15.504Z,93.00
2018-08-09T23:54:43.720Z,93.10
2018-08-09T23:57:11.916Z,93.10
2018-08-09T23:59:40.096Z,94.40
